sensor_id;sensor_type;location;lat;lon;timestamp;temperature;humidity
52867;DHT22;38739;53.324;6.862;2024-02-28T00:01:37;2.10;99.90
52867;DHT22;38739;53.324;6.862;2024-02-28T00:04:03;2.10;99.90
52867;DHT22;38739;53.324;6.862;2024-02-28T00:06:29;2.10;99.90
52867;DHT22;38739;53.324;6.862;2024-02-28T00:08:55;2.10;99.90
52867;DHT22;38739;53.324;6.862;2024-02-28T00:11:21;2.10;99.90
52867;DHT22;38739;53.324;6.862;2024-02-28T00:13:46;2.10;99.90
52867;DHT22;38739;53.324;6.862;2024-02-28T00:16:12;2.10;99.90
52867;DHT22;38739;53.324;6.862;2024-02-28T00:18:38;2.10;99.90
52867;DHT22;38739;53.324;6.862;2024-02-28T00:21:03;2.20;99.90
52867;DHT22;38739;53.324;6.862;2024-02-28T00:23:30;2.20;99.90
52867;DHT22;38739;53.324;6.862;2024-02-28T00:25:56;2.20;99.90
52867;DHT22;38739;53.324;6.862;2024-02-28T00:28:21;2.20;99.90
52867;DHT22;38739;53.324;6.862;2024-02-28T00:30:47;2.20;99.90
52867;DHT22;38739;53.324;6.862;2024-02-28T00:33:13;2.20;99.90
52867;DHT22;38739;53.324;6.862;2024-02-28T00:35:39;2.20;99.90
52867;DHT22;38739;53.324;6.862;2024-02-28T00:38:05;2.30;99.90
52867;DHT22;38739;53.324;6.862;2024-02-28T00:40:31;2.30;99.90
52867;DHT22;38739;53.324;6.862;2024-02-28T00:42:57;2.20;99.90
52867;DHT22;38739;53.324;6.862;2024-02-28T00:45:23;2.30;99.90
52867;DHT22;38739;53.324;6.862;2024-02-28T00:47:49;2.30;99.90
52867;DHT22;38739;53.324;6.862;2024-02-28T00:50:15;2.30;99.90
52867;DHT22;38739;53.324;6.862;2024-02-28T00:52:40;2.30;99.90
52867;DHT22;38739;53.324;6.862;2024-02-28T00:55:07;2.30;99.90
52867;DHT22;38739;53.324;6.862;2024-02-28T00:57:33;2.30;99.90
52867;DHT22;38739;53.324;6.862;2024-02-28T00:59:59;2.40;99.90
52867;DHT22;38739;53.324;6.862;2024-02-28T01:02:24;2.40;99.90
52867;DHT22;38739;53.324;6.862;2024-02-28T01:04:50;2.40;99.90
52867;DHT22;38739;53.324;6.862;2024-02-28T01:07:16;2.40;99.90
52867;DHT22;38739;53.324;6.862;2024-02-28T01:09:41;2.40;99.90
52867;DHT22;38739;53.324;6.862;2024-02-28T01:12:07;2.40;99.90
52867;DHT22;38739;53.324;6.862;2024-02-28T01:14:33;2.40;99.90
52867;DHT22;38739;53.324;6.862;2024-02-28T01:16:59;2.40;99.90
52867;DHT22;38739;53.324;6.862;2024-02-28T01:19:24;2.40;99.90
52867;DHT22;38739;53.324;6.862;2024-02-28T01:21:50;2.40;99.90
52867;DHT22;38739;53.324;6.862;2024-02-28T01:24:16;2.40;99.90
52867;DHT22;38739;53.324;6.862;2024-02-28T01:26:42;2.50;99.90
52867;DHT22;38739;53.324;6.862;2024-02-28T01:29:08;2.40;99.90
52867;DHT22;38739;53.324;6.862;2024-02-28T01:31:33;2.40;99.90
52867;DHT22;38739;53.324;6.862;2024-02-28T01:33:59;2.40;99.90
52867;DHT22;38739;53.324;6.862;2024-02-28T01:36:25;2.50;99.90
52867;DHT22;38739;53.324;6.862;2024-02-28T01:38:51;2.40;99.90
52867;DHT22;38739;53.324;6.862;2024-02-28T01:41:17;2.50;99.90
52867;DHT22;38739;53.324;6.862;2024-02-28T01:43:43;2.50;99.90
52867;DHT22;38739;53.324;6.862;2024-02-28T01:48:46;2.50;99.90
52867;DHT22;38739;53.324;6.862;2024-02-28T01:51:12;2.50;99.90
52867;DHT22;38739;53.324;6.862;2024-02-28T01:53:38;2.50;99.90
52867;DHT22;38739;53.324;6.862;2024-02-28T01:56:04;2.50;99.90
52867;DHT22;38739;53.324;6.862;2024-02-28T01:58:30;2.50;99.90
52867;DHT22;38739;53.324;6.862;2024-02-28T02:00:56;2.50;99.90
52867;DHT22;38739;53.324;6.862;2024-02-28T02:03:23;2.60;99.90
52867;DHT22;38739;53.324;6.862;2024-02-28T02:05:48;2.50;99.90
52867;DHT22;38739;53.324;6.862;2024-02-28T02:08:14;2.60;99.90
52867;DHT22;38739;53.324;6.862;2024-02-28T02:10:40;2.60;99.90
52867;DHT22;38739;53.324;6.862;2024-02-28T02:13:06;2.60;99.90
52867;DHT22;38739;53.324;6.862;2024-02-28T02:15:32;2.60;99.90
52867;DHT22;38739;53.324;6.862;2024-02-28T02:17:57;2.60;99.90
52867;DHT22;38739;53.324;6.862;2024-02-28T02:20:25;2.60;99.90
52867;DHT22;38739;53.324;6.862;2024-02-28T02:22:53;2.60;99.90
52867;DHT22;38739;53.324;6.862;2024-02-28T02:25:18;2.60;99.90
52867;DHT22;38739;53.324;6.862;2024-02-28T02:27:44;2.70;99.90
52867;DHT22;38739;53.324;6.862;2024-02-28T02:30:11;2.60;99.90
52867;DHT22;38739;53.324;6.862;2024-02-28T02:32:36;2.60;99.90
52867;DHT22;38739;53.324;6.862;2024-02-28T02:35:02;2.60;99.90
52867;DHT22;38739;53.324;6.862;2024-02-28T02:37:28;2.70;99.90
52867;DHT22;38739;53.324;6.862;2024-02-28T02:39:54;2.60;99.90
52867;DHT22;38739;53.324;6.862;2024-02-28T02:42:19;2.70;99.90
52867;DHT22;38739;53.324;6.862;2024-02-28T02:44:45;2.70;99.90
52867;DHT22;38739;53.324;6.862;2024-02-28T02:47:11;2.70;99.90
52867;DHT22;38739;53.324;6.862;2024-02-28T02:49:36;2.70;99.90
52867;DHT22;38739;53.324;6.862;2024-02-28T02:52:02;2.70;99.90
52867;DHT22;38739;53.324;6.862;2024-02-28T02:54:28;2.70;99.90
52867;DHT22;38739;53.324;6.862;2024-02-28T02:56:53;2.70;99.90
52867;DHT22;38739;53.324;6.862;2024-02-28T02:59:19;2.70;99.90
52867;DHT22;38739;53.324;6.862;2024-02-28T03:01:49;2.70;99.90
52867;DHT22;38739;53.324;6.862;2024-02-28T03:04:16;2.70;99.90
52867;DHT22;38739;53.324;6.862;2024-02-28T03:06:41;2.80;99.90
52867;DHT22;38739;53.324;6.862;2024-02-28T03:09:07;2.80;99.90
52867;DHT22;38739;53.324;6.862;2024-02-28T03:11:33;2.80;99.90
52867;DHT22;38739;53.324;6.862;2024-02-28T03:14:01;2.80;99.90
52867;DHT22;38739;53.324;6.862;2024-02-28T03:16:26;2.80;99.90
52867;DHT22;38739;53.324;6.862;2024-02-28T03:18:52;2.80;99.90
52867;DHT22;38739;53.324;6.862;2024-02-28T03:21:17;2.70;99.90
52867;DHT22;38739;53.324;6.862;2024-02-28T03:23:43;2.80;99.90
52867;DHT22;38739;53.324;6.862;2024-02-28T03:26:09;2.80;99.90
52867;DHT22;38739;53.324;6.862;2024-02-28T03:28:34;2.80;99.90
52867;DHT22;38739;53.324;6.862;2024-02-28T03:31:00;2.80;99.90
52867;DHT22;38739;53.324;6.862;2024-02-28T03:33:26;2.80;99.90
52867;DHT22;38739;53.324;6.862;2024-02-28T03:35:51;2.80;99.90
52867;DHT22;38739;53.324;6.862;2024-02-28T03:38:17;2.80;99.90
52867;DHT22;38739;53.324;6.862;2024-02-28T03:40:43;2.80;99.90
52867;DHT22;38739;53.324;6.862;2024-02-28T03:43:08;2.80;99.90
52867;DHT22;38739;53.324;6.862;2024-02-28T03:45:39;2.80;99.90
52867;DHT22;38739;53.324;6.862;2024-02-28T03:48:05;2.80;99.90
52867;DHT22;38739;53.324;6.862;2024-02-28T03:50:31;2.80;99.90
52867;DHT22;38739;53.324;6.862;2024-02-28T03:52:56;2.80;99.90
52867;DHT22;38739;53.324;6.862;2024-02-28T03:55:22;2.80;99.90
52867;DHT22;38739;53.324;6.862;2024-02-28T03:57:48;2.80;99.90
52867;DHT22;38739;53.324;6.862;2024-02-28T04:00:17;2.80;99.90
52867;DHT22;38739;53.324;6.862;2024-02-28T04:02:43;2.80;99.90
52867;DHT22;38739;53.324;6.862;2024-02-28T04:05:08;2.80;99.90
52867;DHT22;38739;53.324;6.862;2024-02-28T04:07:34;2.70;99.90
52867;DHT22;38739;53.324;6.862;2024-02-28T04:10:00;2.70;99.90
52867;DHT22;38739;53.324;6.862;2024-02-28T04:12:25;2.70;99.90
52867;DHT22;38739;53.324;6.862;2024-02-28T04:14:51;2.70;99.90
52867;DHT22;38739;53.324;6.862;2024-02-28T04:17:17;2.70;99.90
52867;DHT22;38739;53.324;6.862;2024-02-28T04:19:42;2.80;99.90
52867;DHT22;38739;53.324;6.862;2024-02-28T04:22:08;2.70;99.90
52867;DHT22;38739;53.324;6.862;2024-02-28T04:24:33;2.70;99.90
52867;DHT22;38739;53.324;6.862;2024-02-28T04:26:59;2.70;99.90
52867;DHT22;38739;53.324;6.862;2024-02-28T04:29:25;2.70;99.90
52867;DHT22;38739;53.324;6.862;2024-02-28T04:31:51;2.70;99.90
52867;DHT22;38739;53.324;6.862;2024-02-28T04:34:16;2.70;99.90
52867;DHT22;38739;53.324;6.862;2024-02-28T04:36:42;2.80;99.90
52867;DHT22;38739;53.324;6.862;2024-02-28T04:39:08;2.80;99.90
52867;DHT22;38739;53.324;6.862;2024-02-28T04:41:34;2.80;99.90
52867;DHT22;38739;53.324;6.862;2024-02-28T04:44:00;2.70;99.90
52867;DHT22;38739;53.324;6.862;2024-02-28T04:46:25;2.80;99.90
52867;DHT22;38739;53.324;6.862;2024-02-28T04:48:51;2.70;99.90
52867;DHT22;38739;53.324;6.862;2024-02-28T04:51:17;2.70;99.90
52867;DHT22;38739;53.324;6.862;2024-02-28T04:53:45;2.80;99.90
52867;DHT22;38739;53.324;6.862;2024-02-28T04:56:11;2.80;99.90
52867;DHT22;38739;53.324;6.862;2024-02-28T04:58:37;2.80;99.90
52867;DHT22;38739;53.324;6.862;2024-02-28T05:01:03;2.80;99.90
52867;DHT22;38739;53.324;6.862;2024-02-28T05:03:29;2.80;99.90
52867;DHT22;38739;53.324;6.862;2024-02-28T05:05:54;2.80;99.90
52867;DHT22;38739;53.324;6.862;2024-02-28T05:08:20;2.80;99.90
52867;DHT22;38739;53.324;6.862;2024-02-28T05:10:46;2.80;99.90
52867;DHT22;38739;53.324;6.862;2024-02-28T05:13:12;2.80;99.90
52867;DHT22;38739;53.324;6.862;2024-02-28T05:15:38;2.80;99.90
52867;DHT22;38739;53.324;6.862;2024-02-28T05:18:04;2.80;99.90
52867;DHT22;38739;53.324;6.862;2024-02-28T05:20:30;2.80;99.90
52867;DHT22;38739;53.324;6.862;2024-02-28T05:22:55;2.80;99.90
52867;DHT22;38739;53.324;6.862;2024-02-28T05:25:22;2.80;99.90
52867;DHT22;38739;53.324;6.862;2024-02-28T05:27:47;2.90;99.90
52867;DHT22;38739;53.324;6.862;2024-02-28T05:30:13;2.90;99.90
52867;DHT22;38739;53.324;6.862;2024-02-28T05:32:39;2.90;99.90
52867;DHT22;38739;53.324;6.862;2024-02-28T05:35:05;2.90;99.90
52867;DHT22;38739;53.324;6.862;2024-02-28T05:37:31;2.90;99.90
52867;DHT22;38739;53.324;6.862;2024-02-28T05:39:56;2.90;99.90
52867;DHT22;38739;53.324;6.862;2024-02-28T05:42:22;3.00;99.90
52867;DHT22;38739;53.324;6.862;2024-02-28T05:44:48;3.00;99.90
52867;DHT22;38739;53.324;6.862;2024-02-28T05:47:14;3.00;99.90
52867;DHT22;38739;53.324;6.862;2024-02-28T05:49:40;3.00;99.90
52867;DHT22;38739;53.324;6.862;2024-02-28T05:52:05;3.10;99.90
52867;DHT22;38739;53.324;6.862;2024-02-28T05:54:31;3.10;99.90
52867;DHT22;38739;53.324;6.862;2024-02-28T05:56:58;3.10;99.90
52867;DHT22;38739;53.324;6.862;2024-02-28T05:59:23;3.10;99.90
52867;DHT22;38739;53.324;6.862;2024-02-28T06:01:50;3.10;99.90
52867;DHT22;38739;53.324;6.862;2024-02-28T06:04:16;3.10;99.90
52867;DHT22;38739;53.324;6.862;2024-02-28T06:06:41;3.10;99.90
52867;DHT22;38739;53.324;6.862;2024-02-28T06:09:07;3.10;99.90
52867;DHT22;38739;53.324;6.862;2024-02-28T06:11:34;3.10;99.90
52867;DHT22;38739;53.324;6.862;2024-02-28T06:14:01;3.20;99.90
52867;DHT22;38739;53.324;6.862;2024-02-28T06:16:28;3.10;99.90
52867;DHT22;38739;53.324;6.862;2024-02-28T06:18:53;3.20;99.90
52867;DHT22;38739;53.324;6.862;2024-02-28T06:21:22;3.20;99.90
52867;DHT22;38739;53.324;6.862;2024-02-28T06:23:48;3.20;99.90
52867;DHT22;38739;53.324;6.862;2024-02-28T06:26:14;3.20;99.90
52867;DHT22;38739;53.324;6.862;2024-02-28T06:28:45;3.20;99.90
52867;DHT22;38739;53.324;6.862;2024-02-28T06:31:15;3.20;99.90
52867;DHT22;38739;53.324;6.862;2024-02-28T06:33:41;3.20;99.90
52867;DHT22;38739;53.324;6.862;2024-02-28T06:39:48;3.20;99.90
52867;DHT22;38739;53.324;6.862;2024-02-28T06:42:14;3.30;99.90
52867;DHT22;38739;53.324;6.862;2024-02-28T06:44:39;3.30;99.90
52867;DHT22;38739;53.324;6.862;2024-02-28T06:47:05;3.30;99.90
52867;DHT22;38739;53.324;6.862;2024-02-28T06:49:31;3.20;99.90
52867;DHT22;38739;53.324;6.862;2024-02-28T06:51:57;3.30;99.90
52867;DHT22;38739;53.324;6.862;2024-02-28T06:54:27;3.30;99.90
52867;DHT22;38739;53.324;6.862;2024-02-28T06:56:52;3.30;99.90
52867;DHT22;38739;53.324;6.862;2024-02-28T06:59:18;3.40;99.90
52867;DHT22;38739;53.324;6.862;2024-02-28T07:01:44;3.40;99.90
52867;DHT22;38739;53.324;6.862;2024-02-28T07:04:10;3.40;99.90
52867;DHT22;38739;53.324;6.862;2024-02-28T07:06:35;3.50;99.90
52867;DHT22;38739;53.324;6.862;2024-02-28T07:09:01;3.40;99.90
52867;DHT22;38739;53.324;6.862;2024-02-28T07:11:27;3.50;99.90
52867;DHT22;38739;53.324;6.862;2024-02-28T07:13:52;3.50;99.90
52867;DHT22;38739;53.324;6.862;2024-02-28T07:16:18;3.50;99.90
52867;DHT22;38739;53.324;6.862;2024-02-28T07:18:44;3.50;99.90
52867;DHT22;38739;53.324;6.862;2024-02-28T07:21:09;3.60;99.90
52867;DHT22;38739;53.324;6.862;2024-02-28T07:23:38;3.60;99.90
52867;DHT22;38739;53.324;6.862;2024-02-28T07:26:04;3.60;99.90
52867;DHT22;38739;53.324;6.862;2024-02-28T07:28:31;3.60;99.90
52867;DHT22;38739;53.324;6.862;2024-02-28T07:30:57;3.60;99.90
52867;DHT22;38739;53.324;6.862;2024-02-28T07:33:22;3.60;99.90
52867;DHT22;38739;53.324;6.862;2024-02-28T07:35:51;3.70;99.90
52867;DHT22;38739;53.324;6.862;2024-02-28T07:38:17;3.70;99.90
52867;DHT22;38739;53.324;6.862;2024-02-28T07:40:47;3.70;99.90
52867;DHT22;38739;53.324;6.862;2024-02-28T07:43:13;3.70;99.90
52867;DHT22;38739;53.324;6.862;2024-02-28T07:45:39;3.70;99.90
52867;DHT22;38739;53.324;6.862;2024-02-28T07:48:05;3.70;99.90
52867;DHT22;38739;53.324;6.862;2024-02-28T07:50:31;3.80;99.90
52867;DHT22;38739;53.324;6.862;2024-02-28T07:52:57;3.80;99.90
52867;DHT22;38739;53.324;6.862;2024-02-28T07:55:22;3.80;99.90
52867;DHT22;38739;53.324;6.862;2024-02-28T07:57:53;3.90;99.90
52867;DHT22;38739;53.324;6.862;2024-02-28T08:00:19;3.90;99.90
52867;DHT22;38739;53.324;6.862;2024-02-28T08:02:45;4.00;99.90
52867;DHT22;38739;53.324;6.862;2024-02-28T08:05:12;4.00;99.90
52867;DHT22;38739;53.324;6.862;2024-02-28T08:07:38;4.10;99.90
52867;DHT22;38739;53.324;6.862;2024-02-28T08:10:04;4.10;99.90
52867;DHT22;38739;53.324;6.862;2024-02-28T08:12:32;4.20;99.90
52867;DHT22;38739;53.324;6.862;2024-02-28T08:14:58;4.20;99.90
52867;DHT22;38739;53.324;6.862;2024-02-28T08:17:24;4.20;99.90
52867;DHT22;38739;53.324;6.862;2024-02-28T08:19:50;4.30;99.90
52867;DHT22;38739;53.324;6.862;2024-02-28T08:22:15;4.30;99.90
52867;DHT22;38739;53.324;6.862;2024-02-28T08:24:41;4.30;99.90
52867;DHT22;38739;53.324;6.862;2024-02-28T08:27:07;4.30;99.90
52867;DHT22;38739;53.324;6.862;2024-02-28T08:29:32;4.40;99.90
52867;DHT22;38739;53.324;6.862;2024-02-28T08:32:01;4.40;99.90
52867;DHT22;38739;53.324;6.862;2024-02-28T08:34:27;4.50;99.90
52867;DHT22;38739;53.324;6.862;2024-02-28T08:36:52;4.50;99.90
52867;DHT22;38739;53.324;6.862;2024-02-28T08:39:18;4.60;99.90
52867;DHT22;38739;53.324;6.862;2024-02-28T08:41:44;4.60;99.90
52867;DHT22;38739;53.324;6.862;2024-02-28T08:44:10;4.70;99.90
52867;DHT22;38739;53.324;6.862;2024-02-28T08:46:36;4.80;99.90
52867;DHT22;38739;53.324;6.862;2024-02-28T08:49:01;4.80;99.90
52867;DHT22;38739;53.324;6.862;2024-02-28T08:51:28;4.80;99.90
52867;DHT22;38739;53.324;6.862;2024-02-28T08:53:54;4.90;99.90
52867;DHT22;38739;53.324;6.862;2024-02-28T08:56:21;4.90;99.90
52867;DHT22;38739;53.324;6.862;2024-02-28T08:58:46;4.90;99.90
52867;DHT22;38739;53.324;6.862;2024-02-28T09:01:15;5.00;99.90
52867;DHT22;38739;53.324;6.862;2024-02-28T09:03:41;5.10;99.90
52867;DHT22;38739;53.324;6.862;2024-02-28T09:06:07;5.20;99.90
52867;DHT22;38739;53.324;6.862;2024-02-28T09:08:33;5.30;99.90
52867;DHT22;38739;53.324;6.862;2024-02-28T09:10:58;5.30;99.90
52867;DHT22;38739;53.324;6.862;2024-02-28T09:13:24;5.40;99.90
52867;DHT22;38739;53.324;6.862;2024-02-28T09:15:50;5.40;99.90
52867;DHT22;38739;53.324;6.862;2024-02-28T09:18:16;5.40;99.90
52867;DHT22;38739;53.324;6.862;2024-02-28T09:20:42;5.50;99.90
52867;DHT22;38739;53.324;6.862;2024-02-28T09:23:07;5.50;99.90
52867;DHT22;38739;53.324;6.862;2024-02-28T09:25:33;5.60;99.90
52867;DHT22;38739;53.324;6.862;2024-02-28T09:28:01;5.70;99.90
52867;DHT22;38739;53.324;6.862;2024-02-28T09:30:27;5.80;99.90
52867;DHT22;38739;53.324;6.862;2024-02-28T09:32:53;5.90;99.90
52867;DHT22;38739;53.324;6.862;2024-02-28T09:35:19;5.90;99.90
52867;DHT22;38739;53.324;6.862;2024-02-28T09:37:45;6.00;99.90
52867;DHT22;38739;53.324;6.862;2024-02-28T09:40:11;6.00;99.90
52867;DHT22;38739;53.324;6.862;2024-02-28T09:42:38;6.10;99.90
52867;DHT22;38739;53.324;6.862;2024-02-28T09:45:04;6.30;99.90
52867;DHT22;38739;53.324;6.862;2024-02-28T09:47:30;6.40;99.90
52867;DHT22;38739;53.324;6.862;2024-02-28T09:49:57;6.40;99.90
52867;DHT22;38739;53.324;6.862;2024-02-28T09:52:26;6.40;99.90
52867;DHT22;38739;53.324;6.862;2024-02-28T09:54:53;6.50;99.90
52867;DHT22;38739;53.324;6.862;2024-02-28T09:57:19;6.50;99.90
52867;DHT22;38739;53.324;6.862;2024-02-28T09:59:45;6.60;99.90
52867;DHT22;38739;53.324;6.862;2024-02-28T10:02:12;6.50;99.90
52867;DHT22;38739;53.324;6.862;2024-02-28T10:04:39;6.60;99.90
52867;DHT22;38739;53.324;6.862;2024-02-28T10:07:12;6.60;99.90
52867;DHT22;38739;53.324;6.862;2024-02-28T10:09:39;6.60;99.90
52867;DHT22;38739;53.324;6.862;2024-02-28T10:12:05;6.70;99.90
52867;DHT22;38739;53.324;6.862;2024-02-28T10:14:30;6.70;99.90
52867;DHT22;38739;53.324;6.862;2024-02-28T10:16:56;6.70;99.90
52867;DHT22;38739;53.324;6.862;2024-02-28T10:19:22;6.80;99.90
52867;DHT22;38739;53.324;6.862;2024-02-28T10:21:48;6.80;99.90
52867;DHT22;38739;53.324;6.862;2024-02-28T10:24:13;6.80;99.90
52867;DHT22;38739;53.324;6.862;2024-02-28T10:26:46;6.80;99.90
52867;DHT22;38739;53.324;6.862;2024-02-28T10:29:24;6.70;99.90
52867;DHT22;38739;53.324;6.862;2024-02-28T10:31:54;6.70;99.90
52867;DHT22;38739;53.324;6.862;2024-02-28T10:34:23;6.70;99.90
52867;DHT22;38739;53.324;6.862;2024-02-28T10:36:50;6.70;99.90
52867;DHT22;38739;53.324;6.862;2024-02-28T10:39:15;6.70;99.90
52867;DHT22;38739;53.324;6.862;2024-02-28T10:41:42;6.80;99.90
52867;DHT22;38739;53.324;6.862;2024-02-28T10:44:09;6.80;99.90
52867;DHT22;38739;53.324;6.862;2024-02-28T10:46:37;6.90;99.90
52867;DHT22;38739;53.324;6.862;2024-02-28T10:49:06;6.90;99.90
52867;DHT22;38739;53.324;6.862;2024-02-28T10:51:35;7.00;99.90
52867;DHT22;38739;53.324;6.862;2024-02-28T10:54:11;7.00;99.90
52867;DHT22;38739;53.324;6.862;2024-02-28T10:56:41;7.10;99.90
52867;DHT22;38739;53.324;6.862;2024-02-28T10:59:11;7.10;99.90
52867;DHT22;38739;53.324;6.862;2024-02-28T11:01:47;7.10;99.90
52867;DHT22;38739;53.324;6.862;2024-02-28T11:04:15;7.10;99.90
52867;DHT22;38739;53.324;6.862;2024-02-28T11:06:52;7.10;99.90
52867;DHT22;38739;53.324;6.862;2024-02-28T11:09:23;7.10;99.90
52867;DHT22;38739;53.324;6.862;2024-02-28T11:11:50;7.10;99.90
52867;DHT22;38739;53.324;6.862;2024-02-28T11:14:19;7.10;99.90
52867;DHT22;38739;53.324;6.862;2024-02-28T11:17:04;7.20;99.90
52867;DHT22;38739;53.324;6.862;2024-02-28T11:19:31;7.20;99.90
52867;DHT22;38739;53.324;6.862;2024-02-28T11:22:00;7.20;99.90
52867;DHT22;38739;53.324;6.862;2024-02-28T11:24:31;7.30;99.90
52867;DHT22;38739;53.324;6.862;2024-02-28T11:26:57;7.30;99.90
52867;DHT22;38739;53.324;6.862;2024-02-28T11:29:27;7.30;99.90
52867;DHT22;38739;53.324;6.862;2024-02-28T11:31:54;7.40;99.90
52867;DHT22;38739;53.324;6.862;2024-02-28T11:34:20;7.30;99.90
52867;DHT22;38739;53.324;6.862;2024-02-28T11:36:49;7.40;99.90
52867;DHT22;38739;53.324;6.862;2024-02-28T11:39:16;7.40;99.90
52867;DHT22;38739;53.324;6.862;2024-02-28T11:41:42;7.40;99.90
52867;DHT22;38739;53.324;6.862;2024-02-28T11:44:20;7.50;99.90
52867;DHT22;38739;53.324;6.862;2024-02-28T11:46:47;7.50;99.90
52867;DHT22;38739;53.324;6.862;2024-02-28T11:49:14;7.50;99.90
52867;DHT22;38739;53.324;6.862;2024-02-28T11:51:44;7.60;99.90
52867;DHT22;38739;53.324;6.862;2024-02-28T11:54:10;7.60;99.90
52867;DHT22;38739;53.324;6.862;2024-02-28T11:56:37;7.60;99.90
52867;DHT22;38739;53.324;6.862;2024-02-28T11:59:03;7.60;99.90
52867;DHT22;38739;53.324;6.862;2024-02-28T12:01:38;7.70;99.90
52867;DHT22;38739;53.324;6.862;2024-02-28T12:04:05;7.70;99.90
52867;DHT22;38739;53.324;6.862;2024-02-28T12:06:32;7.70;99.90
52867;DHT22;38739;53.324;6.862;2024-02-28T12:08:58;7.70;99.90
52867;DHT22;38739;53.324;6.862;2024-02-28T12:11:26;7.70;99.90
52867;DHT22;38739;53.324;6.862;2024-02-28T12:13:57;7.80;99.90
52867;DHT22;38739;53.324;6.862;2024-02-28T12:16:25;7.90;99.90
52867;DHT22;38739;53.324;6.862;2024-02-28T12:18:52;7.90;99.90
52867;DHT22;38739;53.324;6.862;2024-02-28T12:21:18;7.90;99.90
52867;DHT22;38739;53.324;6.862;2024-02-28T12:23:45;7.90;99.90
52867;DHT22;38739;53.324;6.862;2024-02-28T12:26:11;7.90;99.90
52867;DHT22;38739;53.324;6.862;2024-02-28T12:28:37;8.00;99.90
52867;DHT22;38739;53.324;6.862;2024-02-28T12:31:02;8.00;99.90
52867;DHT22;38739;53.324;6.862;2024-02-28T12:33:30;8.10;99.90
52867;DHT22;38739;53.324;6.862;2024-02-28T12:35:56;8.10;99.90
52867;DHT22;38739;53.324;6.862;2024-02-28T12:38:22;8.10;99.90
52867;DHT22;38739;53.324;6.862;2024-02-28T12:40:48;8.10;99.90
52867;DHT22;38739;53.324;6.862;2024-02-28T12:43:13;8.10;99.90
52867;DHT22;38739;53.324;6.862;2024-02-28T12:45:39;8.00;99.90
52867;DHT22;38739;53.324;6.862;2024-02-28T12:48:05;8.00;99.90
52867;DHT22;38739;53.324;6.862;2024-02-28T12:50:31;8.00;99.90
52867;DHT22;38739;53.324;6.862;2024-02-28T12:52:59;8.00;99.90
52867;DHT22;38739;53.324;6.862;2024-02-28T12:55:25;8.00;99.90
52867;DHT22;38739;53.324;6.862;2024-02-28T12:57:51;8.00;99.90
52867;DHT22;38739;53.324;6.862;2024-02-28T13:00:17;7.90;99.90
52867;DHT22;38739;53.324;6.862;2024-02-28T13:02:44;8.00;99.90
52867;DHT22;38739;53.324;6.862;2024-02-28T13:05:11;8.00;99.90
52867;DHT22;38739;53.324;6.862;2024-02-28T13:07:38;8.00;99.90
52867;DHT22;38739;53.324;6.862;2024-02-28T13:10:05;7.90;99.90
52867;DHT22;38739;53.324;6.862;2024-02-28T13:12:32;7.90;99.90
52867;DHT22;38739;53.324;6.862;2024-02-28T13:14:58;7.90;99.90
52867;DHT22;38739;53.324;6.862;2024-02-28T13:17:24;7.90;99.90
52867;DHT22;38739;53.324;6.862;2024-02-28T13:19:51;8.00;99.90
52867;DHT22;38739;53.324;6.862;2024-02-28T13:22:16;8.00;99.90
52867;DHT22;38739;53.324;6.862;2024-02-28T13:24:42;7.90;99.90
52867;DHT22;38739;53.324;6.862;2024-02-28T13:27:08;8.00;99.90
52867;DHT22;38739;53.324;6.862;2024-02-28T13:29:35;8.00;99.90
52867;DHT22;38739;53.324;6.862;2024-02-28T13:32:01;8.00;99.90
52867;DHT22;38739;53.324;6.862;2024-02-28T13:34:27;8.00;99.90
52867;DHT22;38739;53.324;6.862;2024-02-28T13:36:53;8.00;99.90
52867;DHT22;38739;53.324;6.862;2024-02-28T13:39:18;8.00;99.90
52867;DHT22;38739;53.324;6.862;2024-02-28T13:41:44;8.00;99.90
52867;DHT22;38739;53.324;6.862;2024-02-28T13:44:10;8.00;99.90
52867;DHT22;38739;53.324;6.862;2024-02-28T13:46:36;8.10;99.90
52867;DHT22;38739;53.324;6.862;2024-02-28T13:49:03;8.10;99.90
52867;DHT22;38739;53.324;6.862;2024-02-28T13:51:29;8.00;99.90
52867;DHT22;38739;53.324;6.862;2024-02-28T13:53:55;8.10;99.90
52867;DHT22;38739;53.324;6.862;2024-02-28T13:56:21;8.10;99.90
52867;DHT22;38739;53.324;6.862;2024-02-28T13:58:47;8.10;99.90
52867;DHT22;38739;53.324;6.862;2024-02-28T14:01:13;8.10;99.90
52867;DHT22;38739;53.324;6.862;2024-02-28T14:03:38;8.10;99.90
52867;DHT22;38739;53.324;6.862;2024-02-28T14:06:04;8.10;99.90
52867;DHT22;38739;53.324;6.862;2024-02-28T14:08:30;8.10;99.90
52867;DHT22;38739;53.324;6.862;2024-02-28T14:10:57;8.10;99.90
52867;DHT22;38739;53.324;6.862;2024-02-28T14:13:24;8.10;99.90
52867;DHT22;38739;53.324;6.862;2024-02-28T14:15:50;8.10;99.90
52867;DHT22;38739;53.324;6.862;2024-02-28T14:18:17;8.10;99.90
52867;DHT22;38739;53.324;6.862;2024-02-28T14:20:43;8.20;99.90
52867;DHT22;38739;53.324;6.862;2024-02-28T14:23:09;8.20;99.90
52867;DHT22;38739;53.324;6.862;2024-02-28T14:25:35;8.30;99.90
52867;DHT22;38739;53.324;6.862;2024-02-28T14:28:00;8.40;99.90
52867;DHT22;38739;53.324;6.862;2024-02-28T14:30:26;8.50;99.90
52867;DHT22;38739;53.324;6.862;2024-02-28T14:32:52;8.60;99.90
52867;DHT22;38739;53.324;6.862;2024-02-28T14:35:18;8.70;99.90
52867;DHT22;38739;53.324;6.862;2024-02-28T14:37:43;8.70;99.90
52867;DHT22;38739;53.324;6.862;2024-02-28T14:40:10;8.80;99.90
52867;DHT22;38739;53.324;6.862;2024-02-28T14:42:39;8.80;99.90
52867;DHT22;38739;53.324;6.862;2024-02-28T14:45:09;8.80;99.90
52867;DHT22;38739;53.324;6.862;2024-02-28T14:47:40;8.80;99.90
52867;DHT22;38739;53.324;6.862;2024-02-28T14:50:07;8.90;99.90
52867;DHT22;38739;53.324;6.862;2024-02-28T14:52:37;8.90;99.90
52867;DHT22;38739;53.324;6.862;2024-02-28T14:55:04;8.90;99.90
52867;DHT22;38739;53.324;6.862;2024-02-28T14:57:30;8.90;99.90
52867;DHT22;38739;53.324;6.862;2024-02-28T14:59:57;8.90;99.90
52867;DHT22;38739;53.324;6.862;2024-02-28T15:02:22;8.80;99.90
52867;DHT22;38739;53.324;6.862;2024-02-28T15:04:48;8.80;99.90
52867;DHT22;38739;53.324;6.862;2024-02-28T15:07:15;8.70;99.90
52867;DHT22;38739;53.324;6.862;2024-02-28T15:09:41;8.50;99.90
52867;DHT22;38739;53.324;6.862;2024-02-28T15:12:07;8.50;99.90
52867;DHT22;38739;53.324;6.862;2024-02-28T15:14:33;8.50;99.90
52867;DHT22;38739;53.324;6.862;2024-02-28T15:16:59;8.40;99.90
52867;DHT22;38739;53.324;6.862;2024-02-28T15:19:25;8.40;99.90
52867;DHT22;38739;53.324;6.862;2024-02-28T15:21:56;8.40;99.90
52867;DHT22;38739;53.324;6.862;2024-02-28T15:24:22;8.40;99.90
52867;DHT22;38739;53.324;6.862;2024-02-28T15:26:47;8.30;99.90
52867;DHT22;38739;53.324;6.862;2024-02-28T15:29:14;8.30;99.90
52867;DHT22;38739;53.324;6.862;2024-02-28T15:31:40;8.30;99.90
52867;DHT22;38739;53.324;6.862;2024-02-28T15:34:06;8.30;99.90
52867;DHT22;38739;53.324;6.862;2024-02-28T15:36:31;8.30;99.90
52867;DHT22;38739;53.324;6.862;2024-02-28T15:38:57;8.30;99.90
52867;DHT22;38739;53.324;6.862;2024-02-28T15:41:23;8.30;99.90
52867;DHT22;38739;53.324;6.862;2024-02-28T15:43:49;8.30;99.90
52867;DHT22;38739;53.324;6.862;2024-02-28T15:46:15;8.30;99.90